createdAt,value
2023-02-28T00:00:52.786Z,1.13
2023-02-28T00:03:25.690Z,1.37
2023-02-28T00:05:54.978Z,1.73
2023-02-28T00:08:41.165Z,1.50
2023-02-28T00:11:12.966Z,1.10
2023-02-28T00:13:48.116Z,1.37
2023-02-28T00:16:22.727Z,1.77
2023-02-28T00:18:53.986Z,1.50
2023-02-28T00:21:22.614Z,1.40
2023-02-28T00:23:55.138Z,1.93
2023-02-28T00:26:25.719Z,1.83
2023-02-28T00:29:02.014Z,1.50
2023-02-28T00:31:30.206Z,1.90
2023-02-28T00:34:00.535Z,1.80
2023-02-28T00:36:28.567Z,1.50
2023-02-28T00:38:56.516Z,2.43
2023-02-28T00:41:29.585Z,1.50
2023-02-28T00:43:58.623Z,1.80
2023-02-28T00:46:28.850Z,1.43
2023-02-28T00:48:58.609Z,1.50
2023-02-28T00:51:28.450Z,1.60
2023-02-28T00:53:58.487Z,1.80
2023-02-28T00:56:31.821Z,1.50
2023-02-28T00:58:59.713Z,1.70
2023-02-28T01:01:32.209Z,1.57
2023-02-28T01:04:00.321Z,1.80
2023-02-28T01:06:28.321Z,1.70
2023-02-28T01:08:59.747Z,1.57
2023-02-28T01:11:35.115Z,1.70
2023-02-28T01:14:06.921Z,1.70
2023-02-28T01:16:35.398Z,1.60
2023-02-28T01:19:04.491Z,1.77
2023-02-28T01:21:35.150Z,1.83
2023-02-28T01:24:07.077Z,1.67
2023-02-28T01:26:40.727Z,1.50
2023-02-28T01:29:08.661Z,2.00
2023-02-28T01:31:36.722Z,1.60
2023-02-28T01:34:05.546Z,1.80
2023-02-28T01:36:37.346Z,1.60
2023-02-28T01:41:50.065Z,1.93
2023-02-28T01:44:57.121Z,2.03
2023-02-28T01:47:28.486Z,1.70
2023-02-28T01:49:56.719Z,1.60
2023-02-28T01:52:27.071Z,1.90
2023-02-28T01:55:02.246Z,1.90
2023-02-28T01:57:39.975Z,1.63
2023-02-28T02:00:11.009Z,1.53
2023-02-28T02:02:39.844Z,1.60
2023-02-28T02:05:12.843Z,2.00
2023-02-28T02:07:45.229Z,1.70
2023-02-28T02:10:18.772Z,1.80
2023-02-28T02:13:39.524Z,1.73
2023-02-28T02:16:21.669Z,2.07
2023-02-28T02:18:56.424Z,2.00
2023-02-28T02:21:53.328Z,1.57
2023-02-28T02:25:07.612Z,1.83
2023-02-28T02:28:07.688Z,1.60
2023-02-28T02:31:10.931Z,1.90
2023-02-28T02:34:20.003Z,1.60
2023-02-28T02:36:57.055Z,1.90
2023-02-28T02:39:37.631Z,1.90
2023-02-28T02:42:19.661Z,1.80
2023-02-28T02:44:55.736Z,2.13
2023-02-28T02:47:28.774Z,1.90
2023-02-28T02:50:02.054Z,1.90
2023-02-28T02:52:37.702Z,2.00
2023-02-28T02:55:08.927Z,2.77
2023-02-28T02:57:42.480Z,2.83
2023-02-28T03:00:12.902Z,1.90
2023-02-28T03:02:43.239Z,2.10
2023-02-28T03:05:20.388Z,2.10
2023-02-28T03:07:49.883Z,1.60
2023-02-28T03:10:37.184Z,1.63
2023-02-28T03:13:21.119Z,1.90
2023-02-28T03:16:15.626Z,1.90
2023-02-28T03:18:56.633Z,2.20
2023-02-28T03:21:30.561Z,1.80
2023-02-28T03:24:06.010Z,2.13
2023-02-28T03:26:41.451Z,2.33
2023-02-28T03:29:18.387Z,2.23
2023-02-28T03:31:51.721Z,2.50
2023-02-28T03:34:24.169Z,2.03
2023-02-28T03:36:59.006Z,1.80
2023-02-28T03:39:35.979Z,2.17
2023-02-28T03:42:09.084Z,2.30
2023-02-28T03:44:41.365Z,2.40
2023-02-28T03:47:13.220Z,2.33
2023-02-28T03:49:45.440Z,2.40
2023-02-28T03:52:15.304Z,2.00
2023-02-28T03:54:50.260Z,2.67
2023-02-28T03:57:28.112Z,2.10
2023-02-28T03:59:59.132Z,2.50
2023-02-28T04:02:27.239Z,2.30
2023-02-28T04:04:55.776Z,2.60
2023-02-28T04:07:26.106Z,2.20
2023-02-28T04:09:55.635Z,2.23
2023-02-28T04:12:25.032Z,2.27
2023-02-28T04:14:53.018Z,2.23
2023-02-28T04:17:20.922Z,2.40
2023-02-28T04:19:49.122Z,2.50
2023-02-28T04:22:20.342Z,2.87
2023-02-28T04:24:48.858Z,2.60
2023-02-28T04:27:35.371Z,2.90
2023-02-28T04:30:05.003Z,2.93
2023-02-28T04:32:36.998Z,2.77
2023-02-28T04:35:12.910Z,2.97
2023-02-28T04:37:44.844Z,3.40
2023-02-28T04:40:13.483Z,3.20
2023-02-28T04:42:43.346Z,2.83
2023-02-28T04:45:18.232Z,3.40
2023-02-28T04:47:50.107Z,3.00
2023-02-28T04:50:18.195Z,3.10
2023-02-28T04:52:47.556Z,2.83
2023-02-28T04:55:15.653Z,3.30
2023-02-28T04:57:44.971Z,3.30
2023-02-28T05:00:17.701Z,3.40
2023-02-28T05:02:45.658Z,3.87
2023-02-28T05:05:19.018Z,3.63
2023-02-28T05:07:47.310Z,3.97
2023-02-28T05:10:15.288Z,4.00
2023-02-28T05:12:44.585Z,4.70
2023-02-28T05:15:15.093Z,4.87
2023-02-28T05:17:44.285Z,5.47
2023-02-28T05:20:15.567Z,5.47
2023-02-28T05:22:44.879Z,5.57
2023-02-28T05:25:15.994Z,6.13
2023-02-28T05:27:50.904Z,6.03
2023-02-28T05:30:19.216Z,5.90
2023-02-28T05:32:53.879Z,6.07
2023-02-28T05:35:21.803Z,6.43
2023-02-28T05:37:50.079Z,5.90
2023-02-28T05:40:18.585Z,5.90
2023-02-28T05:42:48.714Z,6.67
2023-02-28T05:45:16.686Z,5.83
2023-02-28T05:47:44.638Z,5.97
2023-02-28T05:50:22.611Z,5.97
2023-02-28T05:52:52.268Z,5.33
2023-02-28T05:55:20.406Z,4.60
2023-02-28T05:57:51.490Z,3.27
2023-02-28T06:00:20.197Z,2.53
2023-02-28T06:02:48.968Z,2.40
2023-02-28T06:05:18.868Z,2.17
2023-02-28T06:07:50.477Z,2.13
2023-02-28T06:10:23.108Z,2.00
2023-02-28T06:12:52.493Z,2.10
2023-02-28T06:15:21.756Z,2.10
2023-02-28T06:17:49.686Z,1.87
2023-02-28T06:20:19.099Z,1.90
2023-02-28T06:22:47.091Z,1.73
2023-02-28T06:25:16.965Z,2.17
2023-02-28T06:27:45.175Z,1.83
2023-02-28T06:30:15.241Z,2.03
2023-02-28T06:32:43.133Z,1.97
2023-02-28T06:35:11.448Z,1.80
2023-02-28T06:37:41.703Z,1.90
2023-02-28T06:40:13.990Z,1.73
2023-02-28T06:42:42.239Z,2.30
2023-02-28T06:45:11.978Z,2.03
2023-02-28T06:47:42.963Z,1.80
2023-02-28T06:50:15.515Z,1.73
2023-02-28T06:52:43.476Z,2.00
2023-02-28T06:55:11.809Z,2.13
2023-02-28T06:57:40.112Z,2.50
2023-02-28T07:00:13.837Z,2.20
2023-02-28T07:02:43.138Z,2.47
2023-02-28T07:05:12.336Z,2.23
2023-02-28T07:07:45.083Z,2.10
2023-02-28T07:10:20.121Z,2.33
2023-02-28T07:12:48.673Z,2.40
2023-02-28T07:15:16.678Z,1.93
2023-02-28T07:17:51.236Z,2.07
2023-02-28T07:20:20.081Z,2.23
2023-02-28T07:22:57.334Z,2.57
2023-02-28T07:25:25.904Z,2.57
2023-02-28T07:27:55.552Z,2.10
2023-02-28T07:30:25.018Z,2.50
2023-02-28T07:32:57.083Z,2.50
2023-02-28T07:35:25.195Z,2.20
2023-02-28T07:37:57.706Z,2.13
2023-02-28T07:40:27.556Z,2.33
2023-02-28T07:43:01.999Z,2.50
2023-02-28T07:45:32.554Z,2.70
2023-02-28T07:48:04.808Z,2.30
2023-02-28T07:50:33.617Z,2.50
2023-02-28T07:53:01.857Z,2.40
2023-02-28T07:55:31.754Z,2.30
2023-02-28T07:58:02.007Z,2.37
2023-02-28T08:00:30.427Z,2.60
2023-02-28T08:02:58.969Z,2.67
2023-02-28T08:05:34.059Z,2.87
2023-02-28T08:08:02.111Z,2.80
2023-02-28T08:10:30.945Z,2.87
2023-02-28T08:12:59.669Z,2.40
2023-02-28T08:15:27.829Z,3.00
2023-02-28T08:17:57.889Z,2.80
2023-02-28T08:20:28.705Z,2.50
2023-02-28T08:23:01.457Z,2.47
2023-02-28T08:25:30.367Z,2.50
2023-02-28T08:28:01.833Z,3.10
2023-02-28T08:30:36.919Z,2.70
2023-02-28T08:33:13.272Z,2.30
2023-02-28T08:35:41.909Z,2.80
2023-02-28T08:38:12.794Z,2.73
2023-02-28T08:40:45.543Z,2.30
2023-02-28T08:43:22.002Z,2.53
2023-02-28T08:45:57.935Z,3.00
2023-02-28T08:48:26.371Z,3.00
2023-02-28T08:51:07.129Z,2.83
2023-02-28T08:53:45.809Z,2.80
2023-02-28T08:56:17.537Z,2.63
2023-02-28T08:58:49.461Z,3.17
2023-02-28T09:01:20.313Z,3.20
2023-02-28T09:03:53.601Z,3.10
2023-02-28T09:06:25.045Z,3.00
2023-02-28T09:09:02.113Z,3.00
2023-02-28T09:11:30.620Z,2.67
2023-02-28T09:14:04.799Z,2.87
2023-02-28T09:16:35.625Z,2.50
2023-02-28T09:19:04.199Z,2.80
2023-02-28T09:21:38.107Z,2.63
2023-02-28T09:24:12.600Z,2.83
2023-02-28T09:26:56.377Z,2.73
2023-02-28T09:29:32.806Z,2.37
2023-02-28T09:32:04.231Z,2.80
2023-02-28T09:34:38.286Z,2.10
2023-02-28T09:37:06.514Z,2.90
2023-02-28T09:39:36.748Z,2.43
2023-02-28T09:42:08.734Z,2.70
2023-02-28T09:44:46.215Z,2.73
2023-02-28T09:47:19.975Z,3.07
2023-02-28T09:49:50.061Z,2.47
2023-02-28T09:52:20.477Z,2.47
2023-02-28T09:54:56.725Z,2.70
2023-02-28T09:57:35.999Z,2.97
2023-02-28T10:00:19.468Z,2.57
2023-02-28T10:03:27.874Z,2.30
2023-02-28T10:06:03.830Z,2.30
2023-02-28T10:08:42.421Z,2.10
2023-02-28T10:11:14.771Z,2.20
2023-02-28T10:13:52.343Z,2.33
2023-02-28T10:16:28.530Z,2.40
2023-02-28T10:19:01.862Z,2.60
2023-02-28T10:21:50.850Z,2.03
2023-02-28T10:24:25.278Z,2.17
2023-02-28T10:27:01.429Z,2.40
2023-02-28T10:29:33.703Z,2.30
2023-02-28T10:32:05.959Z,2.10
2023-02-28T10:34:35.568Z,2.00
2023-02-28T10:37:08.242Z,2.03
2023-02-28T10:39:41.914Z,2.23
2023-02-28T10:42:30.162Z,1.80
2023-02-28T10:45:13.825Z,1.93
2023-02-28T10:47:53.887Z,2.03
2023-02-28T10:50:44.458Z,2.00
2023-02-28T10:54:00.007Z,1.97
2023-02-28T10:56:35.012Z,2.10
2023-02-28T10:59:25.607Z,1.80
2023-02-28T11:01:55.073Z,1.80
2023-02-28T11:04:43.011Z,2.03
2023-02-28T11:07:27.647Z,1.97
2023-02-28T11:10:01.713Z,1.80
2023-02-28T11:12:43.314Z,2.03
2023-02-28T11:15:27.448Z,1.80
2023-02-28T11:18:00.116Z,2.03
2023-02-28T11:20:30.934Z,1.83
2023-02-28T11:23:03.055Z,1.73
2023-02-28T11:25:35.558Z,1.90
2023-02-28T11:28:09.622Z,1.77
2023-02-28T11:30:45.735Z,1.67
2023-02-28T11:33:31.201Z,2.03
2023-02-28T11:36:05.296Z,1.80
2023-02-28T11:38:37.672Z,1.80
2023-02-28T11:41:23.657Z,2.00
2023-02-28T11:44:12.660Z,1.90
2023-02-28T11:46:52.560Z,1.90
2023-02-28T11:49:37.175Z,1.90
2023-02-28T11:52:13.211Z,1.80
2023-02-28T11:55:00.821Z,1.60
2023-02-28T11:57:41.382Z,1.63
2023-02-28T12:00:25.872Z,1.63
2023-02-28T12:03:06.276Z,1.70
2023-02-28T12:05:41.102Z,1.63
2023-02-28T12:08:24.503Z,1.73
2023-02-28T12:11:04.757Z,2.00
2023-02-28T12:13:57.857Z,1.53
2023-02-28T12:16:53.518Z,1.57
2023-02-28T12:19:30.633Z,1.20
2023-02-28T12:22:26.536Z,1.40
2023-02-28T12:25:37.418Z,1.30
2023-02-28T12:28:24.425Z,1.30
2023-02-28T12:31:04.026Z,1.20
2023-02-28T12:33:44.477Z,1.50
2023-02-28T12:36:33.385Z,1.10
2023-02-28T12:39:07.990Z,1.43
2023-02-28T12:41:48.904Z,1.00
2023-02-28T12:44:27.089Z,1.13
2023-02-28T12:50:00.869Z,1.40
2023-02-28T12:52:46.796Z,1.67
2023-02-28T12:55:22.931Z,1.47
2023-02-28T12:57:58.582Z,1.63
2023-02-28T13:00:31.651Z,1.20
2023-02-28T13:03:31.905Z,1.30
2023-02-28T13:06:32.115Z,1.40
2023-02-28T13:09:24.564Z,1.30
2023-02-28T13:11:54.524Z,1.40
2023-02-28T13:14:35.048Z,1.10
2023-02-28T13:17:15.194Z,1.17
2023-02-28T13:19:45.787Z,1.50
2023-02-28T13:22:23.126Z,1.33
2023-02-28T13:24:57.625Z,1.30
2023-02-28T13:27:41.111Z,1.30
2023-02-28T13:30:46.552Z,1.10
2023-02-28T13:33:29.851Z,1.27
2023-02-28T13:36:30.292Z,1.50
2023-02-28T13:39:01.457Z,1.43
2023-02-28T13:41:48.796Z,1.60
2023-02-28T13:44:24.237Z,1.73
2023-02-28T13:47:23.221Z,2.10
2023-02-28T13:49:53.336Z,2.30
2023-02-28T13:52:25.291Z,2.20
2023-02-28T13:55:18.249Z,2.10
2023-02-28T13:58:05.855Z,2.20
2023-02-28T14:00:52.312Z,2.20
2023-02-28T14:03:45.828Z,1.70
2023-02-28T14:06:24.259Z,1.53
2023-02-28T14:08:58.660Z,2.00
2023-02-28T14:11:32.971Z,2.20
2023-02-28T14:14:05.825Z,1.70
2023-02-28T14:16:43.405Z,1.43
2023-02-28T14:19:19.103Z,1.50
2023-02-28T14:21:59.131Z,1.20
2023-02-28T14:25:20.362Z,1.60
2023-02-28T14:27:59.583Z,2.00
2023-02-28T14:30:46.281Z,1.70
2023-02-28T14:33:27.497Z,1.30
2023-02-28T14:36:09.753Z,1.33
2023-02-28T14:38:43.895Z,1.60
2023-02-28T14:41:19.822Z,1.37
2023-02-28T14:43:57.187Z,1.30
2023-02-28T14:46:30.857Z,1.40
2023-02-28T14:48:59.291Z,1.37
2023-02-28T14:51:27.579Z,1.60
2023-02-28T14:54:00.717Z,1.57
2023-02-28T14:56:32.252Z,1.50
2023-02-28T14:59:00.351Z,1.33
2023-02-28T15:01:30.151Z,1.23
2023-02-28T15:04:14.560Z,1.47
2023-02-28T15:06:46.886Z,1.50
2023-02-28T15:09:34.248Z,1.63
2023-02-28T15:12:02.627Z,1.70
2023-02-28T15:14:33.153Z,1.10
2023-02-28T15:17:12.424Z,1.57
2023-02-28T15:19:53.270Z,1.60
2023-02-28T15:22:31.972Z,1.70
2023-02-28T15:25:00.794Z,1.33
2023-02-28T15:27:33.291Z,1.43
2023-02-28T15:30:09.707Z,1.40
2023-02-28T15:32:41.193Z,1.57
2023-02-28T15:35:29.054Z,1.40
2023-02-28T15:37:59.663Z,1.70
2023-02-28T15:40:32.070Z,1.70
2023-02-28T15:43:03.796Z,1.57
2023-02-28T15:45:39.512Z,1.40
2023-02-28T15:48:20.780Z,1.77
2023-02-28T15:50:54.769Z,2.10
2023-02-28T15:53:32.438Z,1.90
2023-02-28T15:56:04.857Z,2.43
2023-02-28T15:58:43.012Z,2.13
2023-02-28T16:01:25.478Z,2.30
2023-02-28T16:04:05.300Z,2.17
2023-02-28T16:06:44.093Z,2.30
2023-02-28T16:09:25.129Z,2.10
2023-02-28T16:12:01.662Z,2.40
2023-02-28T16:14:37.519Z,2.23
2023-02-28T16:17:14.499Z,2.50
2023-02-28T16:19:53.254Z,2.50
2023-02-28T16:22:23.864Z,2.20
2023-02-28T16:24:53.853Z,2.17
2023-02-28T16:27:50.227Z,2.40
2023-02-28T16:30:28.028Z,2.30
2023-02-28T16:33:00.304Z,2.10
2023-02-28T16:35:42.592Z,2.50
2023-02-28T16:38:16.275Z,2.57
2023-02-28T16:40:57.525Z,2.70
2023-02-28T16:43:29.544Z,2.30
2023-02-28T16:46:08.505Z,2.33
2023-02-28T16:48:37.128Z,2.70
2023-02-28T16:51:17.132Z,2.70
2023-02-28T16:53:50.504Z,2.47
2023-02-28T16:56:23.080Z,3.03
2023-02-28T16:58:57.710Z,2.53
2023-02-28T17:01:28.944Z,2.70
2023-02-28T17:04:00.082Z,2.83
2023-02-28T17:06:32.551Z,2.93
2023-02-28T17:09:03.959Z,3.00
2023-02-28T17:11:38.089Z,2.83
2023-02-28T17:14:09.186Z,2.57
2023-02-28T17:16:44.834Z,2.80
2023-02-28T17:19:19.211Z,3.00
2023-02-28T17:22:06.378Z,3.20
2023-02-28T17:24:44.936Z,2.90
2023-02-28T17:27:15.370Z,3.10
2023-02-28T17:29:57.864Z,3.20
2023-02-28T17:32:40.284Z,2.83
2023-02-28T17:35:26.023Z,2.73
2023-02-28T17:37:58.672Z,3.10
2023-02-28T17:40:50.834Z,2.70
2023-02-28T17:43:20.592Z,2.93
2023-02-28T17:45:51.352Z,3.10
2023-02-28T17:48:21.976Z,2.90
2023-02-28T17:50:58.148Z,3.00
2023-02-28T17:53:28.138Z,2.80
2023-02-28T17:55:56.097Z,2.80
2023-02-28T17:58:24.819Z,3.40
2023-02-28T18:01:00.230Z,2.73
2023-02-28T18:03:29.092Z,2.60
2023-02-28T18:05:57.815Z,2.90
2023-02-28T18:08:28.548Z,3.00
2023-02-28T18:10:56.826Z,3.07
2023-02-28T18:13:25.893Z,3.40
2023-02-28T18:15:53.828Z,3.20
2023-02-28T18:18:22.852Z,3.03
2023-02-28T18:20:54.165Z,3.17
2023-02-28T18:23:22.391Z,3.13
2023-02-28T18:25:53.701Z,3.27
2023-02-28T18:28:21.988Z,3.83
2023-02-28T18:30:51.089Z,3.80
2023-02-28T18:33:21.044Z,3.40
2023-02-28T18:35:57.505Z,3.37
2023-02-28T18:38:26.035Z,3.20
2023-02-28T18:41:01.530Z,3.57
2023-02-28T18:43:30.798Z,3.30
2023-02-28T18:45:58.842Z,3.40
2023-02-28T18:48:26.868Z,3.50
2023-02-28T18:50:54.881Z,3.53
2023-02-28T18:53:23.046Z,3.80
2023-02-28T18:55:51.897Z,3.70
2023-02-28T18:58:24.011Z,3.73
2023-02-28T19:00:54.655Z,3.63
2023-02-28T19:03:22.743Z,4.00
2023-02-28T19:05:51.073Z,5.67
2023-02-28T19:08:19.022Z,5.40
2023-02-28T19:10:47.015Z,4.70
2023-02-28T19:13:15.310Z,4.27
2023-02-28T19:15:47.458Z,3.60
2023-02-28T19:18:33.400Z,3.97
2023-02-28T19:21:03.802Z,4.03
2023-02-28T19:23:35.272Z,3.67
2023-02-28T19:26:18.760Z,3.60
2023-02-28T19:28:47.170Z,3.47
2023-02-28T19:31:19.784Z,3.60
2023-02-28T19:33:47.978Z,3.80
2023-02-28T19:36:16.740Z,3.93
2023-02-28T19:38:45.526Z,3.70
2023-02-28T19:41:16.034Z,3.60
2023-02-28T19:43:44.036Z,3.90
2023-02-28T19:46:13.044Z,3.90
2023-02-28T19:48:44.712Z,4.10
2023-02-28T19:51:14.955Z,4.20
2023-02-28T19:53:45.100Z,4.10
2023-02-28T19:56:13.183Z,4.43
2023-02-28T19:58:41.504Z,4.00
2023-02-28T20:01:12.344Z,5.03
2023-02-28T20:03:40.403Z,4.47
2023-02-28T20:06:13.754Z,4.03
2023-02-28T20:08:42.261Z,4.30
2023-02-28T20:11:12.740Z,4.30
2023-02-28T20:13:40.694Z,4.23
2023-02-28T20:16:10.806Z,4.23
2023-02-28T20:18:40.184Z,4.40
2023-02-28T20:21:10.943Z,4.10
2023-02-28T20:23:39.633Z,4.77
2023-02-28T20:26:10.644Z,4.53
2023-02-28T20:28:38.785Z,4.40
2023-02-28T20:31:13.854Z,4.07
2023-02-28T20:33:42.184Z,4.63
2023-02-28T20:36:12.521Z,4.23
2023-02-28T20:38:41.685Z,4.50
2023-02-28T20:41:10.205Z,4.60
2023-02-28T20:43:38.244Z,5.03
2023-02-28T20:46:06.787Z,4.80
2023-02-28T20:48:36.026Z,5.03
2023-02-28T20:51:05.341Z,4.50
2023-02-28T20:53:36.021Z,4.77
2023-02-28T20:56:06.533Z,5.10
2023-02-28T20:58:37.003Z,4.80
2023-02-28T21:01:12.524Z,5.13
2023-02-28T21:03:40.960Z,5.30
2023-02-28T21:06:09.144Z,5.43
2023-02-28T21:08:39.461Z,5.47
2023-02-28T21:11:10.767Z,4.80
2023-02-28T21:13:39.227Z,5.73
2023-02-28T21:16:08.727Z,5.20
2023-02-28T21:18:38.066Z,5.23
2023-02-28T21:21:07.433Z,5.70
2023-02-28T21:23:35.440Z,5.90
2023-02-28T21:26:05.960Z,5.80
2023-02-28T21:28:34.283Z,5.80
2023-02-28T21:31:03.044Z,5.60
2023-02-28T21:33:31.388Z,5.60
2023-02-28T21:36:03.529Z,6.00
2023-02-28T21:38:31.458Z,5.73
2023-02-28T21:41:06.697Z,5.40
2023-02-28T21:43:35.564Z,5.63
2023-02-28T21:46:04.068Z,10.23
2023-02-28T21:48:32.296Z,14.80
2023-02-28T21:51:02.445Z,10.87
2023-02-28T21:54:20.420Z,7.30
2023-02-28T21:56:50.691Z,6.20
2023-02-28T21:59:19.257Z,6.30
2023-02-28T22:01:48.435Z,7.97
2023-02-28T22:04:24.824Z,9.83
2023-02-28T22:06:54.626Z,7.37
2023-02-28T22:09:23.545Z,6.03
2023-02-28T22:11:53.433Z,6.03
2023-02-28T22:14:23.532Z,6.90
2023-02-28T22:16:54.153Z,6.33
2023-02-28T22:19:24.107Z,6.17
2023-02-28T22:21:54.709Z,6.50
2023-02-28T22:24:24.398Z,6.40
2023-02-28T22:27:15.236Z,6.77
2023-02-28T22:29:47.906Z,6.67
2023-02-28T22:35:47.333Z,9.27
2023-02-28T22:41:26.986Z,13.03
2023-02-28T22:44:11.426Z,10.97
2023-02-28T22:46:41.353Z,11.83
2023-02-28T22:49:10.389Z,12.60
2023-02-28T22:51:38.414Z,12.80
2023-02-28T22:54:06.518Z,12.60
2023-02-28T22:56:34.693Z,12.47
2023-02-28T22:59:03.492Z,9.30
2023-02-28T23:01:34.816Z,6.10
2023-02-28T23:04:03.309Z,6.77
2023-02-28T23:06:35.418Z,6.30
2023-02-28T23:09:05.699Z,6.50
2023-02-28T23:11:38.319Z,7.07
2023-02-28T23:14:12.815Z,6.23
2023-02-28T23:16:44.958Z,7.10
2023-02-28T23:19:20.847Z,6.30
2023-02-28T23:21:48.872Z,6.73
2023-02-28T23:24:35.929Z,6.47
2023-02-28T23:27:06.006Z,7.17
2023-02-28T23:29:34.844Z,6.83
2023-02-28T23:32:06.434Z,7.10
2023-02-28T23:34:34.634Z,6.80
2023-02-28T23:37:03.583Z,7.07
2023-02-28T23:39:32.955Z,7.87
2023-02-28T23:42:01.720Z,6.97
2023-02-28T23:44:30.029Z,7.13
2023-02-28T23:46:57.922Z,7.57
2023-02-28T23:49:32.791Z,7.97
2023-02-28T23:52:01.637Z,7.77
2023-02-28T23:54:29.682Z,8.00
2023-02-28T23:56:57.554Z,7.53
2023-02-28T23:59:25.527Z,7.07
